createdAt,value
2023-04-26T00:01:52.414Z,87.87
2023-04-26T00:04:22.566Z,88.12
2023-04-26T00:06:53.067Z,88.26
2023-04-26T00:09:23.893Z,88.48
2023-04-26T00:11:53.979Z,88.73
2023-04-26T00:14:24.191Z,88.67
2023-04-26T00:16:53.875Z,87.81
2023-04-26T00:19:25.629Z,88.45
2023-04-26T00:21:55.637Z,88.76
2023-04-26T00:24:25.709Z,88.69
2023-04-26T00:26:57.133Z,88.75
2023-04-26T00:29:28.345Z,88.59
2023-04-26T00:31:59.273Z,88.34
2023-04-26T00:34:38.948Z,87.76
2023-04-26T00:37:09.279Z,87.76
2023-04-26T00:39:39.338Z,87.85
2023-04-26T00:42:09.440Z,87.50
2023-04-26T00:44:41.452Z,87.37
2023-04-26T00:47:11.540Z,86.89
2023-04-26T00:49:42.038Z,86.72
2023-04-26T00:52:12.310Z,85.51
2023-04-26T00:54:41.885Z,85.33
2023-04-26T00:57:13.854Z,85.27
2023-04-26T00:59:47.230Z,85.59
2023-04-26T01:02:19.956Z,85.88
2023-04-26T01:04:51.650Z,85.39
2023-04-26T01:07:22.274Z,85.88
2023-04-26T01:09:53.723Z,85.30
2023-04-26T01:12:25.568Z,84.98
2023-04-26T01:14:56.167Z,84.95
2023-04-26T01:17:27.122Z,84.87
2023-04-26T01:19:59.656Z,84.59
2023-04-26T01:22:30.133Z,84.43
2023-04-26T01:25:01.119Z,84.66
2023-04-26T01:27:31.277Z,84.59
2023-04-26T01:30:01.248Z,84.60
2023-04-26T01:32:33.728Z,84.99
2023-04-26T01:35:04.058Z,84.18
2023-04-26T01:37:33.934Z,84.22
2023-04-26T01:40:04.026Z,84.29
2023-04-26T01:42:34.333Z,84.82
2023-04-26T01:45:04.921Z,84.50
2023-04-26T01:47:54.969Z,84.61
2023-04-26T01:50:26.100Z,84.24
2023-04-26T01:52:56.207Z,83.50
2023-04-26T01:55:26.206Z,83.61
2023-04-26T01:57:56.379Z,83.72
2023-04-26T02:00:26.003Z,83.82
2023-04-26T02:02:59.236Z,84.54
2023-04-26T02:05:29.464Z,84.83
2023-04-26T02:07:59.125Z,84.46
2023-04-26T02:10:29.106Z,84.14
2023-04-26T02:12:59.165Z,84.58
2023-04-26T02:15:29.341Z,84.16
2023-04-26T02:17:59.431Z,84.06
2023-04-26T02:20:29.596Z,84.67
2023-04-26T02:22:59.646Z,84.32
2023-04-26T02:25:29.806Z,84.66
2023-04-26T02:27:59.587Z,85.09
2023-04-26T02:30:31.377Z,84.95
2023-04-26T02:33:01.735Z,85.06
2023-04-26T02:35:32.434Z,84.95
2023-04-26T02:38:02.006Z,84.72
2023-04-26T02:40:32.098Z,85.39
2023-04-26T02:43:02.794Z,85.63
2023-04-26T02:45:32.343Z,85.62
2023-04-26T02:48:02.482Z,85.89
2023-04-26T02:50:32.688Z,86.36
2023-04-26T02:53:02.955Z,85.86
2023-04-26T02:55:32.509Z,85.79
2023-04-26T02:58:02.332Z,86.01
2023-04-26T03:00:32.459Z,86.33
2023-04-26T03:03:04.028Z,86.31
2023-04-26T03:05:34.239Z,86.41
2023-04-26T03:08:04.854Z,86.72
2023-04-26T03:10:35.410Z,86.49
2023-04-26T03:13:07.034Z,86.54
2023-04-26T03:15:37.231Z,86.32
2023-04-26T03:18:07.465Z,86.21
2023-04-26T03:20:37.080Z,85.89
2023-04-26T03:23:07.706Z,86.32
2023-04-26T03:25:37.944Z,86.55
2023-04-26T03:28:08.386Z,87.13
2023-04-26T03:30:39.082Z,87.07
2023-04-26T03:33:10.738Z,87.44
2023-04-26T03:35:41.096Z,87.42
2023-04-26T03:38:11.148Z,87.51
2023-04-26T03:40:41.205Z,88.38
2023-04-26T03:43:11.398Z,88.29
2023-04-26T03:45:41.476Z,88.78
2023-04-26T03:48:11.608Z,88.60
2023-04-26T03:50:41.932Z,88.84
2023-04-26T03:53:12.891Z,88.87
2023-04-26T03:55:43.960Z,88.88
2023-04-26T03:58:14.004Z,88.88
2023-04-26T04:00:45.239Z,89.03
2023-04-26T04:03:15.352Z,88.68
2023-04-26T04:05:46.099Z,88.21
2023-04-26T04:08:16.832Z,88.43
2023-04-26T04:10:47.104Z,88.58
2023-04-26T04:13:16.736Z,88.33
2023-04-26T04:15:46.515Z,89.00
2023-04-26T04:18:16.669Z,89.42
2023-04-26T04:20:47.677Z,89.17
2023-04-26T04:23:18.329Z,88.88
2023-04-26T04:25:49.881Z,89.07
2023-04-26T04:28:20.438Z,89.90
2023-04-26T04:30:51.116Z,89.91
2023-04-26T04:33:21.372Z,89.92
2023-04-26T04:35:51.395Z,89.17
2023-04-26T04:38:21.543Z,89.18
2023-04-26T04:40:51.454Z,88.53
2023-04-26T04:43:22.607Z,89.92
2023-04-26T04:45:53.389Z,89.19
2023-04-26T04:48:23.539Z,89.78
2023-04-26T04:50:53.932Z,89.45
2023-04-26T04:53:24.261Z,88.93
2023-04-26T04:55:54.093Z,88.65
2023-04-26T04:58:24.427Z,89.46
2023-04-26T05:00:58.020Z,90.02
2023-04-26T05:03:35.064Z,89.84
2023-04-26T05:06:06.925Z,90.12
2023-04-26T05:08:37.630Z,90.70
2023-04-26T05:11:10.562Z,90.45
2023-04-26T05:13:40.747Z,90.42
2023-04-26T05:16:10.600Z,90.45
2023-04-26T05:18:41.053Z,90.71
2023-04-26T05:21:11.850Z,90.67
2023-04-26T05:23:42.864Z,90.37
2023-04-26T05:26:15.249Z,89.85
2023-04-26T05:29:15.788Z,90.73
2023-04-26T05:32:00.717Z,90.46
2023-04-26T05:34:43.349Z,91.06
2023-04-26T05:37:18.419Z,91.07
2023-04-26T05:39:48.550Z,90.78
2023-04-26T05:42:18.807Z,90.88
2023-04-26T05:44:49.606Z,91.00
2023-04-26T05:47:20.189Z,90.58
2023-04-26T05:49:50.260Z,91.40
2023-04-26T05:52:20.355Z,91.98
2023-04-26T05:54:51.464Z,92.08
2023-04-26T05:57:21.676Z,92.86
2023-04-26T05:59:51.878Z,93.33
2023-04-26T06:02:22.025Z,93.94
2023-04-26T06:04:52.875Z,94.31
2023-04-26T06:07:42.743Z,94.55
2023-04-26T06:10:14.230Z,94.67
2023-04-26T06:12:44.795Z,95.27
2023-04-26T06:15:15.184Z,95.59
2023-04-26T06:17:45.219Z,95.14
2023-04-26T06:20:15.415Z,95.32
2023-04-26T06:22:45.864Z,95.59
2023-04-26T06:25:16.529Z,96.24
2023-04-26T06:27:46.639Z,96.39
2023-04-26T06:30:17.510Z,96.31
2023-04-26T06:32:50.013Z,96.13
2023-04-26T06:35:20.085Z,96.31
2023-04-26T06:37:50.231Z,96.59
2023-04-26T06:40:20.939Z,96.73
2023-04-26T06:42:51.082Z,97.07
2023-04-26T06:45:39.707Z,97.46
2023-04-26T06:48:11.129Z,98.87
2023-04-26T06:50:41.322Z,98.81
2023-04-26T06:53:11.372Z,98.98
2023-04-26T06:55:41.503Z,98.98
2023-04-26T06:58:11.722Z,98.86
2023-04-26T07:00:41.862Z,98.70
2023-04-26T07:03:12.071Z,98.00
2023-04-26T07:05:42.360Z,98.56
2023-04-26T07:08:11.998Z,98.23
2023-04-26T07:10:43.574Z,99.99
2023-04-26T07:13:13.616Z,99.99
2023-04-26T07:15:43.676Z,99.99
2023-04-26T07:18:13.549Z,99.99
2023-04-26T07:20:44.008Z,99.99
2023-04-26T07:23:15.227Z,99.99
2023-04-26T07:25:45.277Z,99.99
2023-04-26T07:28:15.920Z,99.99
2023-04-26T07:30:46.087Z,99.99
2023-04-26T07:33:16.172Z,99.99
2023-04-26T07:35:46.308Z,99.99
2023-04-26T07:38:20.716Z,99.99
2023-04-26T07:40:51.649Z,99.99
2023-04-26T07:43:22.579Z,99.99
2023-04-26T07:45:53.055Z,99.99
2023-04-26T07:48:23.136Z,99.99
2023-04-26T07:50:53.247Z,99.99
2023-04-26T07:53:24.092Z,99.99
2023-04-26T07:55:54.142Z,99.99
2023-04-26T07:58:23.985Z,99.99
2023-04-26T08:00:54.010Z,99.99
2023-04-26T08:03:24.273Z,99.99
2023-04-26T08:05:55.307Z,99.99
2023-04-26T08:08:25.441Z,99.99
2023-04-26T08:10:56.889Z,99.99
2023-04-26T08:13:29.182Z,99.99
2023-04-26T08:15:59.586Z,99.99
2023-04-26T08:18:29.829Z,99.99
2023-04-26T08:21:00.130Z,99.99
2023-04-26T08:23:30.103Z,99.99
2023-04-26T08:26:00.121Z,99.99
2023-04-26T08:28:30.253Z,99.99
2023-04-26T08:31:00.389Z,99.99
2023-04-26T08:33:30.804Z,99.99
2023-04-26T08:36:02.150Z,99.99
2023-04-26T08:38:33.389Z,99.99
2023-04-26T08:41:06.572Z,99.99
2023-04-26T08:43:39.113Z,99.99
2023-04-26T08:46:14.009Z,99.99
2023-04-26T08:48:45.267Z,99.99
2023-04-26T08:51:16.886Z,99.99
2023-04-26T08:53:47.354Z,99.99
2023-04-26T08:56:17.388Z,99.99
2023-04-26T08:58:47.619Z,99.99
2023-04-26T09:01:18.876Z,99.99
2023-04-26T09:04:09.495Z,99.99
2023-04-26T09:06:40.125Z,99.99
2023-04-26T09:09:12.419Z,99.99
2023-04-26T09:11:58.908Z,99.99
2023-04-26T09:14:29.331Z,99.99
2023-04-26T09:16:59.466Z,99.99
2023-04-26T09:19:45.405Z,99.99
2023-04-26T09:22:15.520Z,99.99
2023-04-26T09:24:51.364Z,99.99
2023-04-26T09:27:22.346Z,99.99
2023-04-26T09:30:19.641Z,99.99
2023-04-26T09:32:58.466Z,99.99
2023-04-26T09:35:33.331Z,99.99
2023-04-26T09:38:12.249Z,99.99
2023-04-26T09:40:46.752Z,99.99
2023-04-26T09:43:18.697Z,99.99
2023-04-26T09:45:51.553Z,99.99
2023-04-26T09:48:32.505Z,99.99
2023-04-26T09:51:05.563Z,99.99
2023-04-26T09:53:42.451Z,99.99
2023-04-26T09:56:16.815Z,99.99
2023-04-26T09:58:53.494Z,99.99
2023-04-26T10:01:24.526Z,99.99
2023-04-26T10:03:54.951Z,99.99
2023-04-26T10:06:26.398Z,99.99
2023-04-26T10:08:56.760Z,99.99
2023-04-26T10:11:26.484Z,99.99
2023-04-26T10:13:57.052Z,99.99
2023-04-26T10:16:27.365Z,99.99
2023-04-26T10:18:57.865Z,99.99
2023-04-26T10:21:36.588Z,99.99
2023-04-26T10:24:07.073Z,99.99
2023-04-26T10:26:55.591Z,99.99
2023-04-26T10:29:27.093Z,99.99
2023-04-26T10:32:03.184Z,99.99
2023-04-26T10:34:35.194Z,99.99
2023-04-26T10:37:10.339Z,99.99
2023-04-26T10:39:42.201Z,99.99
2023-04-26T10:42:26.517Z,99.99
2023-04-26T10:44:58.553Z,99.99
2023-04-26T10:47:32.761Z,99.99
2023-04-26T10:50:07.404Z,99.99
2023-04-26T10:52:40.032Z,99.99
2023-04-26T10:55:11.508Z,99.99
2023-04-26T10:57:55.342Z,99.99
2023-04-26T11:00:31.774Z,99.99
2023-04-26T11:03:08.065Z,99.99
2023-04-26T11:05:42.204Z,99.99
2023-04-26T11:08:19.335Z,99.99
2023-04-26T11:10:54.306Z,99.99
2023-04-26T11:13:24.379Z,99.99
2023-04-26T11:16:04.387Z,99.99
2023-04-26T11:18:35.473Z,99.99
2023-04-26T11:21:07.401Z,99.99
2023-04-26T11:23:37.792Z,99.99
2023-04-26T11:26:09.335Z,99.99
2023-04-26T11:28:40.604Z,99.99
2023-04-26T11:31:10.672Z,99.99
2023-04-26T11:33:42.813Z,99.99
2023-04-26T11:36:13.394Z,99.99
2023-04-26T11:38:43.898Z,99.99
2023-04-26T11:41:13.986Z,99.99
2023-04-26T11:43:44.176Z,99.99
2023-04-26T11:46:14.225Z,99.99
2023-04-26T11:48:44.443Z,99.99
2023-04-26T11:51:14.664Z,99.99
2023-04-26T11:53:45.786Z,99.99
2023-04-26T11:56:20.267Z,99.99
2023-04-26T11:58:54.928Z,99.99
2023-04-26T12:01:27.273Z,99.99
2023-04-26T12:03:59.935Z,99.99
2023-04-26T12:06:47.475Z,99.99
2023-04-26T12:09:18.361Z,99.99
2023-04-26T12:12:00.149Z,99.99
2023-04-26T12:14:41.136Z,99.99
2023-04-26T12:17:11.616Z,99.86
2023-04-26T12:19:42.579Z,99.99
2023-04-26T12:22:12.627Z,99.01
2023-04-26T12:24:44.230Z,98.24
2023-04-26T12:27:23.042Z,98.10
2023-04-26T12:29:53.111Z,99.31
2023-04-26T12:32:23.128Z,99.97
2023-04-26T12:34:53.270Z,98.34
2023-04-26T12:37:23.238Z,98.33
2023-04-26T12:39:53.752Z,97.50
2023-04-26T12:42:23.895Z,98.76
2023-04-26T12:44:53.973Z,98.26
2023-04-26T12:47:23.992Z,99.58
2023-04-26T12:49:54.280Z,99.57
2023-04-26T12:52:23.787Z,98.71
2023-04-26T12:54:53.819Z,98.36
2023-04-26T12:57:23.428Z,97.68
2023-04-26T12:59:53.194Z,96.87
2023-04-26T13:02:23.527Z,97.08
2023-04-26T13:04:53.884Z,96.98
2023-04-26T13:07:24.523Z,96.36
2023-04-26T13:09:54.774Z,96.17
2023-04-26T13:12:24.408Z,96.22
2023-04-26T13:14:54.249Z,96.55
2023-04-26T13:17:26.642Z,97.51
2023-04-26T13:19:56.703Z,98.13
2023-04-26T13:22:26.538Z,98.57
2023-04-26T13:24:56.349Z,97.98
2023-04-26T13:27:28.452Z,96.60
2023-04-26T13:30:00.191Z,97.82
2023-04-26T13:32:30.916Z,98.28
2023-04-26T13:35:00.921Z,97.41
2023-04-26T13:37:30.933Z,97.39
2023-04-26T13:40:01.226Z,97.26
2023-04-26T13:42:30.828Z,96.02
2023-04-26T13:45:01.311Z,96.16
2023-04-26T13:47:31.420Z,96.47
2023-04-26T13:50:01.476Z,95.80
2023-04-26T13:52:31.658Z,95.36
2023-04-26T13:55:01.976Z,94.11
2023-04-26T13:57:33.148Z,93.88
2023-04-26T14:00:03.259Z,94.46
2023-04-26T14:02:41.169Z,94.55
2023-04-26T14:05:11.152Z,94.34
2023-04-26T14:07:42.804Z,94.24
2023-04-26T14:10:13.586Z,93.99
2023-04-26T14:12:43.889Z,92.48
2023-04-26T14:15:14.361Z,93.17
2023-04-26T14:17:44.510Z,93.85
2023-04-26T14:20:14.655Z,94.43
2023-04-26T14:22:44.675Z,94.82
2023-04-26T14:25:14.394Z,94.26
2023-04-26T14:27:44.910Z,93.45
2023-04-26T14:30:15.512Z,93.43
2023-04-26T14:32:46.583Z,94.41
2023-04-26T14:35:16.675Z,94.42
2023-04-26T14:37:47.053Z,94.05
2023-04-26T14:40:17.257Z,92.42
2023-04-26T14:42:47.531Z,93.46
2023-04-26T14:45:17.370Z,92.25
2023-04-26T14:47:47.600Z,91.40
2023-04-26T14:50:17.840Z,92.44
2023-04-26T14:52:48.015Z,93.61
2023-04-26T14:55:23.432Z,93.07
2023-04-26T14:57:53.637Z,92.93
2023-04-26T15:00:24.317Z,91.59
2023-04-26T15:02:57.396Z,93.23
2023-04-26T15:05:27.539Z,91.48
2023-04-26T15:07:58.304Z,92.24
2023-04-26T15:10:28.419Z,89.93
2023-04-26T15:12:58.067Z,91.10
2023-04-26T15:15:28.076Z,91.31
2023-04-26T15:17:58.224Z,90.82
2023-04-26T15:20:27.877Z,90.53
2023-04-26T15:22:57.916Z,88.58
2023-04-26T15:25:28.023Z,89.05
2023-04-26T15:27:58.591Z,89.53
2023-04-26T15:30:28.657Z,87.20
2023-04-26T15:32:58.424Z,85.76
2023-04-26T15:35:28.432Z,86.77
2023-04-26T15:37:58.514Z,88.27
2023-04-26T15:40:28.849Z,88.75
2023-04-26T15:42:59.321Z,89.41
2023-04-26T15:45:29.374Z,87.27
2023-04-26T15:47:59.463Z,87.86
2023-04-26T15:50:29.037Z,89.21
2023-04-26T15:53:01.830Z,90.12
2023-04-26T15:55:34.409Z,87.80
2023-04-26T15:58:04.509Z,88.27
2023-04-26T16:00:35.113Z,87.31
2023-04-26T16:03:05.550Z,88.58
2023-04-26T16:05:35.730Z,86.15
2023-04-26T16:08:06.889Z,87.36
2023-04-26T16:10:38.448Z,87.23
2023-04-26T16:13:09.033Z,86.26
2023-04-26T16:15:39.276Z,86.34
2023-04-26T16:18:09.505Z,85.85
2023-04-26T16:20:39.611Z,84.79
2023-04-26T16:23:09.426Z,84.28
2023-04-26T16:25:39.784Z,84.99
2023-04-26T16:28:12.015Z,85.33
2023-04-26T16:30:42.821Z,86.27
2023-04-26T16:33:13.039Z,87.21
2023-04-26T16:35:43.865Z,87.84
2023-04-26T16:38:14.078Z,88.16
2023-04-26T16:40:43.634Z,88.45
2023-04-26T16:43:15.854Z,85.13
2023-04-26T16:45:46.109Z,85.07
2023-04-26T16:48:16.229Z,85.76
2023-04-26T16:50:46.217Z,85.89
2023-04-26T16:53:16.321Z,83.56
2023-04-26T16:55:46.256Z,77.19
2023-04-26T16:58:16.431Z,74.57
2023-04-26T17:00:46.025Z,81.51
2023-04-26T17:03:16.413Z,83.19
2023-04-26T17:05:50.007Z,84.81
2023-04-26T17:08:21.246Z,79.44
2023-04-26T17:10:52.853Z,76.55
2023-04-26T17:13:22.927Z,72.65
2023-04-26T17:15:52.549Z,70.03
2023-04-26T17:18:22.358Z,75.38
2023-04-26T17:20:54.655Z,80.14
2023-04-26T17:23:24.713Z,82.85
2023-04-26T17:25:55.467Z,82.27
2023-04-26T17:28:25.668Z,75.06
2023-04-26T17:30:55.679Z,71.03
2023-04-26T17:33:27.103Z,70.26
2023-04-26T17:35:57.395Z,78.91
2023-04-26T17:38:28.393Z,81.80
2023-04-26T17:40:58.435Z,81.42
2023-04-26T17:43:28.053Z,78.30
2023-04-26T17:45:58.384Z,77.00
2023-04-26T17:48:30.151Z,73.79
2023-04-26T17:51:00.277Z,77.06
2023-04-26T17:53:48.266Z,68.22
2023-04-26T17:56:18.701Z,61.39
2023-04-26T17:58:49.802Z,60.91
2023-04-26T18:01:21.234Z,65.66
2023-04-26T18:03:51.464Z,70.87
2023-04-26T18:06:22.190Z,75.86
2023-04-26T18:08:52.296Z,78.33
2023-04-26T18:11:23.241Z,80.63
2023-04-26T18:13:53.435Z,85.18
2023-04-26T18:16:23.351Z,87.01
2023-04-26T18:18:53.432Z,88.14
2023-04-26T18:21:23.003Z,87.17
2023-04-26T18:23:52.790Z,87.00
2023-04-26T18:26:22.707Z,88.05
2023-04-26T18:28:52.759Z,86.57
2023-04-26T18:31:23.188Z,85.25
2023-04-26T18:33:53.510Z,84.70
2023-04-26T18:36:23.565Z,85.58
2023-04-26T18:38:53.399Z,84.07
2023-04-26T18:41:24.894Z,85.44
2023-04-26T18:43:55.616Z,85.65
2023-04-26T18:46:25.696Z,83.88
2023-04-26T18:48:56.673Z,83.70
2023-04-26T18:51:27.808Z,83.65
2023-04-26T18:53:58.368Z,81.48
2023-04-26T18:56:29.691Z,81.48
2023-04-26T18:59:00.116Z,82.92
2023-04-26T19:01:30.199Z,82.73
2023-04-26T19:04:00.056Z,82.00
2023-04-26T19:06:30.196Z,82.95
2023-04-26T19:09:00.437Z,82.22
2023-04-26T19:11:35.011Z,81.76
2023-04-26T19:14:11.589Z,83.13
2023-04-26T19:16:41.607Z,81.50
2023-04-26T19:19:12.347Z,82.51
2023-04-26T19:21:42.615Z,83.26
2023-04-26T19:24:12.450Z,82.87
2023-04-26T19:26:43.262Z,82.92
2023-04-26T19:29:13.554Z,83.67
2023-04-26T19:31:44.286Z,83.94
2023-04-26T19:34:14.782Z,84.35
2023-04-26T19:36:44.879Z,84.47
2023-04-26T19:39:15.915Z,84.45
2023-04-26T19:41:46.295Z,85.57
2023-04-26T19:44:16.588Z,86.19
2023-04-26T19:46:46.276Z,85.24
2023-04-26T19:49:15.984Z,86.35
2023-04-26T19:51:46.639Z,86.32
2023-04-26T19:54:18.521Z,86.63
2023-04-26T19:56:48.592Z,86.12
2023-04-26T19:59:18.427Z,86.71
2023-04-26T20:01:48.559Z,86.80
2023-04-26T20:04:19.104Z,87.49
2023-04-26T20:06:49.385Z,88.58
2023-04-26T20:09:19.475Z,87.85
2023-04-26T20:11:50.868Z,87.98
2023-04-26T20:14:20.857Z,88.47
2023-04-26T20:16:51.313Z,88.32
2023-04-26T20:19:21.741Z,88.87
2023-04-26T20:21:51.866Z,88.95
2023-04-26T20:24:23.232Z,88.38
2023-04-26T20:26:53.166Z,88.13
2023-04-26T20:29:23.291Z,88.33
2023-04-26T20:31:52.929Z,87.97
2023-04-26T20:34:22.976Z,88.00
2023-04-26T20:36:53.369Z,88.66
2023-04-26T20:39:23.417Z,88.78
2023-04-26T20:41:53.438Z,89.01
2023-04-26T20:44:23.490Z,88.83
2023-04-26T20:46:53.299Z,89.12
2023-04-26T20:49:23.634Z,88.49
2023-04-26T20:51:54.607Z,88.43
2023-04-26T20:54:25.225Z,88.38
2023-04-26T20:56:55.316Z,88.89
2023-04-26T20:59:28.342Z,88.82
2023-04-26T21:01:58.462Z,89.07
2023-04-26T21:04:28.720Z,89.80
2023-04-26T21:06:58.966Z,89.49
2023-04-26T21:09:29.312Z,89.33
2023-04-26T21:11:59.320Z,89.26
2023-04-26T21:14:29.843Z,89.37
2023-04-26T21:17:01.226Z,89.22
2023-04-26T21:19:31.341Z,89.86
2023-04-26T21:22:01.639Z,89.67
2023-04-26T21:24:31.759Z,90.00
2023-04-26T21:27:01.933Z,89.97
2023-04-26T21:29:35.554Z,89.54
2023-04-26T21:32:05.692Z,89.93
2023-04-26T21:34:35.527Z,90.03
2023-04-26T21:37:05.715Z,90.59
2023-04-26T21:39:35.308Z,90.19
2023-04-26T21:42:05.037Z,91.23
2023-04-26T21:44:35.109Z,91.18
2023-04-26T21:47:05.129Z,90.93
2023-04-26T21:49:35.893Z,90.93
2023-04-26T21:52:06.495Z,91.05
2023-04-26T21:54:38.188Z,91.51
2023-04-26T21:57:08.259Z,91.65
2023-04-26T21:59:38.311Z,91.65
2023-04-26T22:02:09.261Z,91.60
2023-04-26T22:04:39.499Z,91.92
2023-04-26T22:07:09.019Z,91.61
2023-04-26T22:09:38.955Z,91.71
2023-04-26T22:12:09.196Z,92.05
2023-04-26T22:14:38.739Z,91.68
2023-04-26T22:17:08.447Z,92.43
2023-04-26T22:19:39.249Z,92.68
2023-04-26T22:22:09.234Z,92.81
2023-04-26T22:24:38.797Z,92.36
2023-04-26T22:27:09.359Z,93.07
2023-04-26T22:29:39.403Z,93.25
2023-04-26T22:32:09.512Z,93.77
2023-04-26T22:34:40.436Z,93.94
2023-04-26T22:37:20.673Z,93.51
2023-04-26T22:39:53.828Z,93.58
2023-04-26T22:42:23.889Z,93.29
2023-04-26T22:44:53.961Z,93.19
2023-04-26T22:47:24.264Z,93.29
2023-04-26T22:49:54.332Z,93.19
2023-04-26T22:52:31.326Z,92.90
2023-04-26T22:55:02.712Z,92.96
2023-04-26T22:57:33.327Z,93.37
2023-04-26T23:00:03.787Z,93.14
2023-04-26T23:02:34.462Z,93.18
2023-04-26T23:05:06.329Z,93.21
2023-04-26T23:07:36.350Z,93.19
2023-04-26T23:10:07.338Z,93.51
2023-04-26T23:12:38.277Z,93.32
2023-04-26T23:15:08.843Z,93.19
2023-04-26T23:17:39.200Z,93.16
2023-04-26T23:20:16.927Z,93.24
2023-04-26T23:22:49.041Z,93.53
2023-04-26T23:25:21.073Z,93.33
2023-04-26T23:27:51.190Z,93.96
2023-04-26T23:30:21.347Z,93.91
2023-04-26T23:32:51.660Z,93.55
2023-04-26T23:35:21.198Z,93.36
2023-04-26T23:37:53.552Z,94.16
2023-04-26T23:40:25.191Z,94.18
2023-04-26T23:42:55.360Z,94.12
2023-04-26T23:45:25.519Z,94.32
2023-04-26T23:47:55.916Z,94.52
2023-04-26T23:50:45.493Z,94.59
2023-04-26T23:53:15.608Z,94.59
2023-04-26T23:55:45.452Z,94.89
2023-04-26T23:58:15.677Z,94.76
